Terminal Aerodrome Forecast
Issued by NWS

Home | Current Version | Previous Version | Text Only | Print | Product List | Glossary On
Versions: 1 2 3 4 5 6 7 8 9 10 11 12 13 14 15
000
FTUS45 KMSO 191533 AAB
TAFSMN
TAF AMD
KSMN 191533Z 1916/2012 00000KT P6SM VCSH BKN035
     FM192000 33012G22KT 6SM -RA BR BKN035 OVC050
     FM200400 28008KT 6SM -RA BR OVC050
      AMD LTD TO CLD VIS AND WIND=

USA.gov is the U.S. government's official web portal to all federal, state and local government web resources and services.